createdAt,value
2023-04-29T00:00:06.852Z,41.09
2023-04-29T00:02:59.363Z,41.11
2023-04-29T00:05:32.541Z,41.14
2023-04-29T00:08:05.172Z,41.21
2023-04-29T00:10:37.971Z,41.58
2023-04-29T00:13:10.282Z,41.61
2023-04-29T00:15:43.277Z,41.73
2023-04-29T00:18:15.678Z,41.79
2023-04-29T00:20:48.128Z,41.80
2023-04-29T00:23:20.482Z,41.75
2023-04-29T00:25:53.732Z,41.53
2023-04-29T00:28:26.930Z,41.59
2023-04-29T00:30:59.371Z,41.55
2023-04-29T00:33:31.739Z,41.68
2023-04-29T00:36:04.337Z,41.67
2023-04-29T00:38:36.633Z,41.67
2023-04-29T00:41:09.227Z,41.73
2023-04-29T00:43:41.668Z,41.77
2023-04-29T00:46:14.015Z,41.85
2023-04-29T00:48:46.395Z,41.91
2023-04-29T00:51:19.304Z,42.16
2023-04-29T00:53:51.972Z,42.11
2023-04-29T00:56:24.713Z,42.13
2023-04-29T00:58:57.016Z,42.36
2023-04-29T01:01:29.500Z,42.50
2023-04-29T01:04:02.375Z,42.53
2023-04-29T01:06:44.761Z,42.72
2023-04-29T01:09:29.222Z,42.82
2023-04-29T01:12:13.056Z,42.98
2023-04-29T01:14:49.790Z,43.15
2023-04-29T01:17:27.007Z,43.37
2023-04-29T01:20:00.459Z,43.54
2023-04-29T01:22:32.777Z,43.56
2023-04-29T01:25:06.087Z,43.62
2023-04-29T01:27:43.863Z,43.79
2023-04-29T01:30:31.742Z,43.89
2023-04-29T01:33:12.727Z,44.02
2023-04-29T01:36:07.113Z,44.05
2023-04-29T01:38:47.649Z,44.04
2023-04-29T01:41:24.859Z,44.06
2023-04-29T01:44:00.206Z,44.14
2023-04-29T01:46:34.026Z,44.29
2023-04-29T01:49:07.100Z,44.34
2023-04-29T01:51:39.521Z,44.39
2023-04-29T01:54:11.873Z,44.51
2023-04-29T01:56:44.700Z,44.58
2023-04-29T01:59:17.001Z,44.63
2023-04-29T02:01:49.306Z,44.69
2023-04-29T02:04:21.662Z,44.72
2023-04-29T02:06:54.170Z,44.85
2023-04-29T02:09:26.559Z,44.97
2023-04-29T02:11:58.980Z,45.08
2023-04-29T02:14:31.789Z,45.26
2023-04-29T02:17:04.119Z,45.27
2023-04-29T02:19:36.462Z,45.41
2023-04-29T02:22:09.469Z,45.55
2023-04-29T02:24:42.124Z,45.59
2023-04-29T02:27:14.402Z,45.66
2023-04-29T02:29:46.841Z,45.67
2023-04-29T02:32:20.362Z,45.84
2023-04-29T02:34:52.955Z,45.88
2023-04-29T02:37:25.541Z,45.99
2023-04-29T02:39:57.804Z,46.09
2023-04-29T02:42:30.112Z,46.11
2023-04-29T02:45:02.410Z,46.21
2023-04-29T02:47:34.721Z,46.35
2023-04-29T02:50:08.297Z,46.34
2023-04-29T02:52:42.027Z,46.47
2023-04-29T02:55:14.400Z,46.42
2023-04-29T02:57:46.842Z,46.54
2023-04-29T03:00:19.263Z,46.63
2023-04-29T03:02:51.825Z,46.63
2023-04-29T03:05:24.415Z,46.62
2023-04-29T03:07:56.848Z,46.89
2023-04-29T03:10:29.234Z,46.90
2023-04-29T03:13:01.698Z,46.92
2023-04-29T03:15:33.982Z,46.98
2023-04-29T03:18:06.525Z,46.99
2023-04-29T03:20:38.896Z,46.87
2023-04-29T03:23:11.259Z,47.07
2023-04-29T03:25:43.546Z,47.20
2023-04-29T03:28:16.367Z,47.21
2023-04-29T03:30:48.661Z,47.38
2023-04-29T03:33:21.028Z,47.39
2023-04-29T03:35:53.334Z,47.34
2023-04-29T03:38:26.089Z,47.37
2023-04-29T03:40:58.489Z,47.45
2023-04-29T03:43:31.253Z,47.54
2023-04-29T03:46:03.579Z,47.73
2023-04-29T03:48:37.010Z,47.89
2023-04-29T03:51:09.644Z,47.96
2023-04-29T03:53:42.127Z,48.19
2023-04-29T03:56:15.426Z,48.16
2023-04-29T03:58:48.838Z,48.41
2023-04-29T04:01:21.718Z,48.63
2023-04-29T04:03:54.905Z,48.62
2023-04-29T04:06:27.423Z,48.61
2023-04-29T04:08:59.751Z,48.80
2023-04-29T04:11:32.113Z,48.85
2023-04-29T04:14:05.967Z,48.91
2023-04-29T04:16:38.445Z,48.90
2023-04-29T04:19:11.133Z,48.99
2023-04-29T04:21:43.772Z,49.05
2023-04-29T04:24:16.096Z,49.20
2023-04-29T04:26:48.442Z,49.18
2023-04-29T04:29:20.797Z,49.25
2023-04-29T04:31:53.210Z,49.24
2023-04-29T04:34:26.464Z,49.26
2023-04-29T04:36:58.826Z,49.39
2023-04-29T04:39:31.095Z,49.53
2023-04-29T04:42:03.996Z,49.60
2023-04-29T04:44:36.373Z,49.55
2023-04-29T04:47:08.668Z,49.64
2023-04-29T04:49:40.966Z,49.52
2023-04-29T04:52:13.390Z,49.54
2023-04-29T04:54:48.073Z,49.42
2023-04-29T04:57:20.613Z,49.41
2023-04-29T04:59:53.334Z,49.37
2023-04-29T05:02:26.322Z,49.27
2023-04-29T05:05:00.467Z,49.28
2023-04-29T05:07:33.259Z,49.19
2023-04-29T05:10:06.843Z,49.16
2023-04-29T05:12:39.373Z,49.13
2023-04-29T05:15:15.046Z,49.01
2023-04-29T05:17:47.368Z,48.90
2023-04-29T05:20:20.649Z,48.72
2023-04-29T05:22:53.010Z,48.70
2023-04-29T05:25:25.259Z,48.38
2023-04-29T05:27:57.766Z,48.14
2023-04-29T05:30:30.065Z,48.24
2023-04-29T05:33:03.772Z,48.01
2023-04-29T05:35:36.234Z,47.89
2023-04-29T05:38:08.650Z,47.66
2023-04-29T05:40:40.974Z,47.65
2023-04-29T05:43:13.291Z,47.51
2023-04-29T05:45:47.839Z,47.42
2023-04-29T05:48:20.036Z,47.00
2023-04-29T05:50:54.102Z,46.84
2023-04-29T05:53:26.468Z,46.65
2023-04-29T05:55:59.269Z,46.72
2023-04-29T05:58:31.573Z,46.56
2023-04-29T06:01:03.851Z,46.57
2023-04-29T06:03:36.407Z,46.19
2023-04-29T06:06:09.260Z,46.13
2023-04-29T06:08:41.697Z,45.89
2023-04-29T06:11:14.789Z,45.89
2023-04-29T06:13:47.275Z,45.81
2023-04-29T06:16:20.149Z,45.53
2023-04-29T06:18:52.420Z,45.35
2023-04-29T06:21:24.702Z,45.31
2023-04-29T06:23:57.086Z,44.83
2023-04-29T06:26:29.759Z,44.59
2023-04-29T06:29:02.159Z,44.74
2023-04-29T06:31:34.495Z,44.72
2023-04-29T06:34:06.927Z,44.64
2023-04-29T06:36:39.223Z,44.49
2023-04-29T06:39:11.501Z,44.27
2023-04-29T06:41:43.795Z,43.93
2023-04-29T06:44:17.008Z,43.78
2023-04-29T06:46:49.354Z,43.62
2023-04-29T06:49:21.745Z,43.46
2023-04-29T06:51:54.138Z,43.31
2023-04-29T06:54:27.814Z,43.20
2023-04-29T06:57:00.109Z,43.15
2023-04-29T06:59:33.022Z,42.99
2023-04-29T07:02:05.438Z,42.78
2023-04-29T07:04:38.207Z,42.73
2023-04-29T07:07:10.511Z,42.08
2023-04-29T07:09:42.868Z,41.76
2023-04-29T07:12:15.124Z,41.35
2023-04-29T07:14:47.553Z,41.20
2023-04-29T07:17:20.880Z,40.71
2023-04-29T07:19:53.874Z,40.89
2023-04-29T07:22:26.945Z,41.15
2023-04-29T07:25:02.479Z,40.71
2023-04-29T07:27:35.852Z,40.62
2023-04-29T07:30:10.328Z,40.68
2023-04-29T07:32:42.742Z,40.40
2023-04-29T07:35:15.090Z,40.24
2023-04-29T07:37:47.359Z,40.00
2023-04-29T07:40:19.749Z,39.80
2023-04-29T07:42:51.974Z,39.38
2023-04-29T07:45:24.374Z,39.24
2023-04-29T07:47:56.694Z,38.71
2023-04-29T07:50:29.201Z,38.28
2023-04-29T07:53:02.284Z,38.16
2023-04-29T07:55:34.635Z,38.36
2023-04-29T07:58:07.507Z,38.25
2023-04-29T08:00:39.809Z,37.84
2023-04-29T08:03:12.631Z,37.88
2023-04-29T08:05:45.365Z,37.85
2023-04-29T08:08:17.893Z,37.75
2023-04-29T08:10:50.235Z,37.32
2023-04-29T08:13:22.566Z,36.98
2023-04-29T08:15:55.132Z,37.06
2023-04-29T08:18:28.013Z,36.82
2023-04-29T08:21:02.338Z,37.03
2023-04-29T08:23:35.946Z,36.74
2023-04-29T08:26:08.681Z,36.59
2023-04-29T08:28:41.099Z,36.61
2023-04-29T08:31:19.959Z,36.69
2023-04-29T08:33:52.303Z,36.55
2023-04-29T08:36:24.672Z,36.43
2023-04-29T08:38:57.174Z,36.01
2023-04-29T08:41:29.463Z,36.00
2023-04-29T08:44:02.575Z,35.82
2023-04-29T08:46:35.549Z,35.70
2023-04-29T08:49:08.485Z,35.48
2023-04-29T08:51:40.904Z,35.18
2023-04-29T08:54:14.006Z,34.94
2023-04-29T08:56:48.306Z,34.72
2023-04-29T08:59:22.263Z,34.89
2023-04-29T09:01:56.488Z,34.82
2023-04-29T09:04:36.064Z,34.65
2023-04-29T09:07:08.945Z,34.32
2023-04-29T09:09:42.819Z,33.89
2023-04-29T09:12:15.309Z,33.89
2023-04-29T09:14:47.590Z,33.96
2023-04-29T09:17:20.510Z,33.76
2023-04-29T09:19:52.800Z,33.66
2023-04-29T09:22:25.452Z,33.79
2023-04-29T09:25:12.985Z,33.35
2023-04-29T09:27:45.396Z,33.16
2023-04-29T09:30:17.903Z,32.83
2023-04-29T09:33:08.161Z,32.71
2023-04-29T09:35:43.476Z,32.77
2023-04-29T09:38:17.882Z,32.75
2023-04-29T09:43:29.601Z,32.29
2023-04-29T09:46:02.609Z,32.46
2023-04-29T09:48:35.664Z,32.08
2023-04-29T09:51:08.274Z,32.19
2023-04-29T09:53:40.513Z,32.16
2023-04-29T09:56:12.958Z,32.06
2023-04-29T09:58:46.092Z,32.18
2023-04-29T10:01:21.781Z,31.76
2023-04-29T10:03:56.469Z,31.37
2023-04-29T10:06:29.849Z,31.19
2023-04-29T10:09:03.067Z,31.36
2023-04-29T10:11:36.571Z,31.03
2023-04-29T10:14:13.678Z,31.19
2023-04-29T10:16:51.021Z,30.90
2023-04-29T10:19:31.530Z,30.94
2023-04-29T10:22:10.303Z,30.80
2023-04-29T10:24:44.141Z,30.55
2023-04-29T10:27:19.095Z,30.32
2023-04-29T10:29:52.949Z,30.42
2023-04-29T10:32:27.650Z,30.65
2023-04-29T10:35:03.982Z,30.44
2023-04-29T10:37:36.835Z,30.22
2023-04-29T10:40:18.623Z,30.44
2023-04-29T10:42:52.720Z,30.41
2023-04-29T10:45:28.537Z,30.35
2023-04-29T10:48:18.989Z,30.40
2023-04-29T10:51:06.844Z,30.32
2023-04-29T10:53:59.158Z,30.05
2023-04-29T10:56:42.405Z,29.87
2023-04-29T10:59:16.476Z,29.76
2023-04-29T11:01:50.912Z,29.79
2023-04-29T11:04:24.139Z,30.11
2023-04-29T11:06:59.348Z,30.32
2023-04-29T11:09:34.280Z,30.11
2023-04-29T11:12:11.084Z,29.97
2023-04-29T11:14:51.397Z,30.01
2023-04-29T11:17:27.121Z,30.03
2023-04-29T11:20:02.226Z,30.16
2023-04-29T11:22:35.310Z,30.23
2023-04-29T11:25:09.823Z,30.24
2023-04-29T11:27:43.400Z,30.06
2023-04-29T11:30:17.130Z,30.28
2023-04-29T11:32:51.165Z,30.39
2023-04-29T11:35:23.992Z,30.37
2023-04-29T11:37:56.705Z,30.35
2023-04-29T11:40:29.252Z,30.43
2023-04-29T11:43:01.577Z,30.62
2023-04-29T11:45:37.095Z,30.54
2023-04-29T11:48:07.844Z,30.58
2023-04-29T11:50:43.251Z,30.59
2023-04-29T11:53:15.658Z,30.70
2023-04-29T11:55:48.262Z,30.68
2023-04-29T11:58:21.887Z,30.75
2023-04-29T12:00:54.281Z,30.87
2023-04-29T12:03:26.748Z,31.13
2023-04-29T12:06:00.003Z,31.08
2023-04-29T12:08:34.929Z,31.29
2023-04-29T12:11:09.944Z,31.31
2023-04-29T12:13:42.360Z,31.32
2023-04-29T12:16:14.865Z,31.21
2023-04-29T12:18:47.285Z,31.43
2023-04-29T12:21:19.841Z,31.53
2023-04-29T12:23:52.778Z,31.87
2023-04-29T12:26:25.348Z,31.60
2023-04-29T12:29:00.604Z,31.50
2023-04-29T12:31:38.848Z,31.63
2023-04-29T12:34:11.603Z,31.78
2023-04-29T12:36:46.608Z,31.87
2023-04-29T12:39:19.275Z,31.94
2023-04-29T12:41:55.935Z,31.99
2023-04-29T12:44:28.737Z,32.11
2023-04-29T12:47:11.553Z,32.35
2023-04-29T12:49:46.730Z,32.33
2023-04-29T12:52:18.995Z,32.34
2023-04-29T12:54:51.586Z,32.40
2023-04-29T12:57:25.306Z,32.39
2023-04-29T12:59:57.648Z,32.39
2023-04-29T13:02:30.114Z,32.64
2023-04-29T13:05:02.905Z,32.46
2023-04-29T13:07:37.037Z,32.57
2023-04-29T13:10:12.197Z,32.71
2023-04-29T13:12:44.603Z,32.73
2023-04-29T13:15:16.873Z,32.71
2023-04-29T13:17:49.256Z,32.76
2023-04-29T13:20:22.005Z,32.77
2023-04-29T13:22:54.248Z,32.69
2023-04-29T13:25:26.768Z,32.91
2023-04-29T13:27:59.065Z,32.84
2023-04-29T13:30:32.041Z,32.84
2023-04-29T13:33:11.858Z,33.05
2023-04-29T13:35:45.770Z,32.95
2023-04-29T13:38:18.709Z,32.85
2023-04-29T13:40:54.727Z,33.05
2023-04-29T13:43:35.954Z,32.91
2023-04-29T13:46:11.463Z,32.84
2023-04-29T13:49:17.279Z,33.02
2023-04-29T13:52:16.850Z,33.01
2023-04-29T13:54:55.494Z,32.87
2023-04-29T13:59:57.500Z,32.80
2023-04-29T14:02:30.418Z,32.70
2023-04-29T14:05:03.269Z,32.65
2023-04-29T14:07:35.865Z,32.69
2023-04-29T14:10:09.011Z,32.70
2023-04-29T14:12:41.369Z,32.56
2023-04-29T14:15:15.272Z,32.60
2023-04-29T14:17:47.833Z,32.85
2023-04-29T14:20:20.251Z,32.89
2023-04-29T14:22:53.223Z,32.85
2023-04-29T14:25:26.763Z,32.84
2023-04-29T14:28:01.098Z,32.97
2023-04-29T14:30:33.368Z,32.94
2023-04-29T14:33:05.804Z,32.75
2023-04-29T14:35:38.288Z,32.60
2023-04-29T14:38:10.728Z,32.84
2023-04-29T14:40:43.136Z,32.88
2023-04-29T14:43:15.888Z,33.12
2023-04-29T14:45:48.377Z,33.14
2023-04-29T14:48:20.747Z,33.30
2023-04-29T14:50:53.072Z,33.22
2023-04-29T14:53:25.426Z,33.32
2023-04-29T14:55:57.845Z,33.30
2023-04-29T14:58:30.194Z,33.48
2023-04-29T15:01:02.712Z,33.28
2023-04-29T15:06:12.788Z,33.27
2023-04-29T15:08:45.224Z,33.25
2023-04-29T15:11:17.601Z,33.25
2023-04-29T15:13:50.022Z,33.42
2023-04-29T15:16:22.386Z,33.29
2023-04-29T15:18:54.657Z,33.36
2023-04-29T15:21:27.233Z,33.46
2023-04-29T15:23:59.521Z,33.45
2023-04-29T15:26:31.900Z,33.24
2023-04-29T15:29:04.306Z,33.42
2023-04-29T15:31:36.757Z,33.41
2023-04-29T15:34:09.355Z,33.47
2023-04-29T15:36:41.801Z,33.58
2023-04-29T15:39:14.254Z,33.58
2023-04-29T15:41:46.436Z,33.45
2023-04-29T15:44:18.727Z,33.72
2023-04-29T15:46:51.179Z,33.63
2023-04-29T15:49:24.791Z,33.55
2023-04-29T15:51:57.230Z,33.57
2023-04-29T15:54:29.500Z,33.74
2023-04-29T15:57:03.565Z,33.87
2023-04-29T15:59:36.058Z,33.62
2023-04-29T16:02:11.055Z,33.68
2023-04-29T16:04:43.439Z,33.94
2023-04-29T16:07:15.775Z,33.96
2023-04-29T16:09:47.998Z,33.97
2023-04-29T16:12:20.839Z,34.10
2023-04-29T16:14:53.249Z,34.18
2023-04-29T16:17:25.520Z,34.23
2023-04-29T16:19:58.277Z,34.22
2023-04-29T16:22:31.298Z,34.28
2023-04-29T16:25:04.240Z,34.22
2023-04-29T16:27:36.595Z,34.43
2023-04-29T16:30:11.085Z,34.49
2023-04-29T16:32:44.198Z,34.47
2023-04-29T16:35:16.763Z,34.50
2023-04-29T16:37:49.546Z,34.45
2023-04-29T16:40:24.591Z,34.55
2023-04-29T16:42:57.986Z,34.68
2023-04-29T16:45:30.484Z,34.73
2023-04-29T16:48:03.318Z,34.81
2023-04-29T16:50:36.446Z,34.79
2023-04-29T16:53:08.790Z,34.87
2023-04-29T16:55:41.214Z,34.95
2023-04-29T16:58:13.500Z,34.98
2023-04-29T17:00:45.838Z,35.07
2023-04-29T17:03:18.447Z,35.33
2023-04-29T17:05:51.467Z,35.30
2023-04-29T17:08:23.935Z,35.39
2023-04-29T17:10:56.257Z,35.51
2023-04-29T17:13:28.769Z,35.56
2023-04-29T17:16:01.272Z,35.57
2023-04-29T17:18:33.645Z,35.66
2023-04-29T17:21:06.367Z,35.79
2023-04-29T17:23:38.867Z,35.88
2023-04-29T17:26:11.074Z,35.82
2023-04-29T17:28:43.451Z,35.87
2023-04-29T17:31:15.964Z,35.90
2023-04-29T17:33:55.234Z,36.04
2023-04-29T17:36:28.060Z,36.12
2023-04-29T17:39:00.502Z,36.21
2023-04-29T17:41:34.066Z,36.25
2023-04-29T17:44:08.016Z,36.35
2023-04-29T17:46:42.780Z,36.34
2023-04-29T17:49:15.506Z,36.50
2023-04-29T17:51:47.968Z,36.87
2023-04-29T17:54:20.782Z,37.01
2023-04-29T17:56:53.074Z,37.15
2023-04-29T17:59:25.652Z,37.35
2023-04-29T18:01:58.707Z,37.39
2023-04-29T18:04:30.990Z,37.50
2023-04-29T18:07:03.303Z,37.58
2023-04-29T18:09:36.030Z,37.69
2023-04-29T18:12:08.668Z,37.48
2023-04-29T18:14:41.292Z,37.47
2023-04-29T18:17:13.822Z,37.54
2023-04-29T18:19:50.578Z,37.79
2023-04-29T18:22:22.768Z,37.77
2023-04-29T18:24:54.985Z,37.92
2023-04-29T18:27:27.395Z,38.14
2023-04-29T18:29:59.762Z,38.19
2023-04-29T18:32:31.968Z,38.35
2023-04-29T18:35:05.059Z,38.55
2023-04-29T18:37:37.430Z,38.65
2023-04-29T18:40:11.980Z,38.81
2023-04-29T18:42:44.688Z,38.86
2023-04-29T18:45:16.992Z,38.90
2023-04-29T18:47:49.272Z,39.05
2023-04-29T18:50:21.710Z,39.12
2023-04-29T18:52:54.074Z,39.31
2023-04-29T18:55:26.359Z,39.39
2023-04-29T18:57:58.723Z,39.43
2023-04-29T19:00:31.269Z,39.44
2023-04-29T19:03:03.682Z,39.61
2023-04-29T19:05:36.271Z,39.71
2023-04-29T19:08:09.216Z,39.78
2023-04-29T19:10:41.439Z,39.88
2023-04-29T19:13:13.900Z,39.94
2023-04-29T19:15:50.746Z,39.92
2023-04-29T19:18:23.896Z,40.02
2023-04-29T19:20:56.876Z,40.17
2023-04-29T19:23:29.088Z,40.32
2023-04-29T19:26:01.441Z,40.40
2023-04-29T19:28:33.899Z,40.53
2023-04-29T19:31:07.139Z,40.56
2023-04-29T19:33:39.745Z,40.62
2023-04-29T19:36:14.427Z,40.78
2023-04-29T19:38:47.263Z,40.96
2023-04-29T19:41:20.943Z,40.85
2023-04-29T19:43:53.596Z,40.73
2023-04-29T19:46:26.022Z,40.79
2023-04-29T19:48:58.370Z,40.92
2023-04-29T19:51:31.088Z,41.07
2023-04-29T19:54:03.510Z,41.25
2023-04-29T19:56:36.000Z,41.41
2023-04-29T19:59:08.431Z,41.34
2023-04-29T20:01:41.136Z,41.46
2023-04-29T20:04:13.358Z,41.60
2023-04-29T20:06:46.334Z,41.70
2023-04-29T20:09:18.868Z,41.74
2023-04-29T20:11:51.238Z,41.87
2023-04-29T20:14:23.430Z,41.93
2023-04-29T20:16:57.596Z,42.06
2023-04-29T20:19:31.513Z,42.16
2023-04-29T20:22:03.791Z,42.26
2023-04-29T20:24:36.156Z,42.27
2023-04-29T20:27:08.513Z,42.52
2023-04-29T20:29:41.516Z,42.45
2023-04-29T20:32:13.945Z,42.69
2023-04-29T20:34:46.410Z,42.55
2023-04-29T20:37:19.905Z,42.57
2023-04-29T20:39:53.012Z,42.37
2023-04-29T20:42:25.554Z,42.31
2023-04-29T20:44:57.999Z,42.15
2023-04-29T20:47:30.314Z,42.21
2023-04-29T20:50:04.997Z,42.06
2023-04-29T20:52:38.178Z,42.02
2023-04-29T20:55:10.906Z,41.97
2023-04-29T20:57:43.244Z,42.00
2023-04-29T21:00:16.765Z,41.97
2023-04-29T21:02:49.110Z,42.35
2023-04-29T21:05:21.587Z,42.41
2023-04-29T21:07:54.141Z,42.61
2023-04-29T21:10:26.740Z,42.76
2023-04-29T21:12:59.709Z,42.91
2023-04-29T21:15:32.226Z,42.97
2023-04-29T21:18:06.061Z,43.07
2023-04-29T21:20:38.454Z,43.20
2023-04-29T21:23:10.811Z,43.41
2023-04-29T21:25:43.053Z,43.49
2023-04-29T21:28:16.948Z,43.57
2023-04-29T21:30:49.705Z,43.66
2023-04-29T21:33:21.956Z,43.75
2023-04-29T21:35:56.255Z,43.82
2023-04-29T21:38:28.952Z,43.91
2023-04-29T21:41:02.886Z,44.06
2023-04-29T21:43:36.280Z,44.13
2023-04-29T21:46:09.918Z,44.22
2023-04-29T21:48:42.474Z,44.24
2023-04-29T21:51:15.010Z,44.40
2023-04-29T21:53:47.398Z,44.64
2023-04-29T21:56:20.022Z,44.62
2023-04-29T21:58:52.411Z,44.77
2023-04-29T22:01:39.877Z,44.83
2023-04-29T22:04:12.354Z,44.97
2023-04-29T22:06:44.837Z,45.18
2023-04-29T22:09:17.451Z,45.22
2023-04-29T22:11:49.721Z,45.30
2023-04-29T22:14:22.437Z,45.36
2023-04-29T22:16:54.700Z,45.63
2023-04-29T22:19:30.198Z,45.64
2023-04-29T22:22:02.743Z,45.76
2023-04-29T22:24:35.210Z,45.80
2023-04-29T22:27:07.404Z,45.90
2023-04-29T22:29:39.698Z,45.85
2023-04-29T22:32:12.112Z,46.16
2023-04-29T22:34:44.529Z,46.20
2023-04-29T22:37:17.379Z,46.27
2023-04-29T22:39:50.539Z,46.41
2023-04-29T22:42:22.842Z,46.41
2023-04-29T22:44:55.214Z,46.56
2023-04-29T22:47:27.591Z,46.66
2023-04-29T22:49:59.833Z,46.78
2023-04-29T22:52:32.914Z,46.80
2023-04-29T22:55:05.493Z,46.78
2023-04-29T22:57:37.744Z,46.88
2023-04-29T23:00:13.209Z,47.15
2023-04-29T23:02:45.772Z,47.15
2023-04-29T23:05:18.189Z,47.22
2023-04-29T23:07:50.432Z,47.26
2023-04-29T23:10:22.785Z,47.28
2023-04-29T23:12:55.168Z,47.41
2023-04-29T23:15:29.442Z,47.43
2023-04-29T23:18:01.937Z,47.32
2023-04-29T23:20:34.464Z,47.61
2023-04-29T23:23:06.742Z,47.68
2023-04-29T23:25:39.166Z,47.53
2023-04-29T23:28:11.583Z,47.72
2023-04-29T23:30:43.953Z,47.86
2023-04-29T23:33:16.350Z,48.14
2023-04-29T23:35:52.586Z,48.09
2023-04-29T23:38:24.915Z,48.12
2023-04-29T23:40:57.233Z,48.35
2023-04-29T23:43:30.048Z,48.22
2023-04-29T23:46:02.598Z,48.24
2023-04-29T23:48:34.860Z,48.45
2023-04-29T23:51:07.371Z,48.41
2023-04-29T23:53:40.316Z,48.46
2023-04-29T23:56:13.134Z,48.60
2023-04-29T23:58:45.311Z,48.61
